sensor_id;sensor_type;location;lat;lon;timestamp;pressure;altitude;pressure_sealevel;temperature;humidity
69245;BME280;56357;52.304;4.870;2023-06-22T00:01:51;102195.41;;;25.10;nan
69245;BME280;56357;52.304;4.870;2023-06-22T00:04:17;102199.97;;;25.06;nan
69245;BME280;56357;52.304;4.870;2023-06-22T00:06:44;102199.72;;;25.02;nan
69245;BME280;56357;52.304;4.870;2023-06-22T00:09:10;102202.56;;;25.02;nan
69245;BME280;56357;52.304;4.870;2023-06-22T00:11:37;102203.69;;;25.01;nan
69245;BME280;56357;52.304;4.870;2023-06-22T00:14:03;102200.34;;;24.94;nan
69245;BME280;56357;52.304;4.870;2023-06-22T00:16:31;102199.78;;;24.97;nan
69245;BME280;56357;52.304;4.870;2023-06-22T00:18:57;102197.22;;;24.96;nan
69245;BME280;56357;52.304;4.870;2023-06-22T00:21:28;102196.09;;;24.97;nan
69245;BME280;56357;52.304;4.870;2023-06-22T00:23:54;102195.25;;;24.96;nan
69245;BME280;56357;52.304;4.870;2023-06-22T00:26:22;102192.72;;;24.95;nan
69245;BME280;56357;52.304;4.870;2023-06-22T00:28:48;102189.88;;;24.95;nan
69245;BME280;56357;52.304;4.870;2023-06-22T00:31:15;102198.94;;;24.92;nan
69245;BME280;56357;52.304;4.870;2023-06-22T00:33:41;102197.53;;;24.94;nan
69245;BME280;56357;52.304;4.870;2023-06-22T00:36:07;102193.56;;;24.90;nan
69245;BME280;56357;52.304;4.870;2023-06-22T00:38:34;102189.06;;;24.89;nan
69245;BME280;56357;52.304;4.870;2023-06-22T00:41:03;102197.00;;;24.87;nan
69245;BME280;56357;52.304;4.870;2023-06-22T00:43:29;102195.91;;;24.83;nan
69245;BME280;56357;52.304;4.870;2023-06-22T00:45:56;102196.75;;;24.84;nan
69245;BME280;56357;52.304;4.870;2023-06-22T00:48:22;102197.06;;;24.77;nan
69245;BME280;56357;52.304;4.870;2023-06-22T00:50:49;102191.38;;;24.82;nan
69245;BME280;56357;52.304;4.870;2023-06-22T00:53:18;102185.69;;;24.82;nan
69245;BME280;56357;52.304;4.870;2023-06-22T00:55:45;102181.19;;;24.81;nan
69245;BME280;56357;52.304;4.870;2023-06-22T00:58:12;102193.09;;;24.78;nan
69245;BME280;56357;52.304;4.870;2023-06-22T01:00:39;102192.53;;;24.71;nan
69245;BME280;56357;52.304;4.870;2023-06-22T01:03:06;102189.72;;;24.71;nan
69245;BME280;56357;52.304;4.870;2023-06-22T01:05:34;102187.75;;;24.72;nan
69245;BME280;56357;52.304;4.870;2023-06-22T01:08:05;102181.22;;;24.71;nan
69245;BME280;56357;52.304;4.870;2023-06-22T01:13:05;102174.75;;;24.66;nan
69245;BME280;56357;52.304;4.870;2023-06-22T01:15:33;102166.78;;;24.68;nan
69245;BME280;56357;52.304;4.870;2023-06-22T01:18:03;102174.19;;;24.64;nan
69245;BME280;56357;52.304;4.870;2023-06-22T01:20:30;102161.72;;;24.65;nan
69245;BME280;56357;52.304;4.870;2023-06-22T01:25:26;102167.16;;;24.56;nan
69245;BME280;56357;52.304;4.870;2023-06-22T01:30:40;102168.00;;;24.57;nan
69245;BME280;56357;52.304;4.870;2023-06-22T01:33:08;102166.59;;;24.54;nan
69245;BME280;56357;52.304;4.870;2023-06-22T01:35:37;102164.63;;;24.55;nan
69245;BME280;56357;52.304;4.870;2023-06-22T01:38:03;102168.81;;;24.57;nan
69245;BME280;56357;52.304;4.870;2023-06-22T01:40:30;102172.84;;;24.51;nan
69245;BME280;56357;52.304;4.870;2023-06-22T01:42:58;102169.72;;;24.52;nan
69245;BME280;56357;52.304;4.870;2023-06-22T01:45:25;102162.34;;;24.51;nan
69245;BME280;56357;52.304;4.870;2023-06-22T01:47:52;102176.25;;;24.48;nan
69245;BME280;56357;52.304;4.870;2023-06-22T01:50:18;102176.84;;;24.45;nan
69245;BME280;56357;52.304;4.870;2023-06-22T01:52:45;102176.56;;;24.46;nan
69245;BME280;56357;52.304;4.870;2023-06-22T01:55:11;102165.22;;;24.46;nan
69245;BME280;56357;52.304;4.870;2023-06-22T01:57:38;102168.34;;;24.45;nan
69245;BME280;56357;52.304;4.870;2023-06-22T02:00:06;102153.94;;;24.41;nan
69245;BME280;56357;52.304;4.870;2023-06-22T02:02:43;102160.72;;;24.40;nan
69245;BME280;56357;52.304;4.870;2023-06-22T02:05:13;102158.75;;;24.41;nan
69245;BME280;56357;52.304;4.870;2023-06-22T02:10:41;102180.84;;;24.39;nan
69245;BME280;56357;52.304;4.870;2023-06-22T02:13:09;102179.44;;;24.36;nan
69245;BME280;56357;52.304;4.870;2023-06-22T02:15:35;102173.47;;;24.38;nan
69245;BME280;56357;52.304;4.870;2023-06-22T02:18:02;102169.81;;;24.37;nan
69245;BME280;56357;52.304;4.870;2023-06-22T02:20:28;102166.13;;;24.37;nan
69245;BME280;56357;52.304;4.870;2023-06-22T02:22:55;102159.91;;;24.35;nan
69245;BME280;56357;52.304;4.870;2023-06-22T02:25:21;102157.38;;;24.33;nan
69245;BME280;56357;52.304;4.870;2023-06-22T02:27:47;102154.25;;;24.35;nan
69245;BME280;56357;52.304;4.870;2023-06-22T02:30:14;102158.78;;;24.31;nan
69245;BME280;56357;52.304;4.870;2023-06-22T02:32:41;102154.00;;;24.26;nan
69245;BME280;56357;52.304;4.870;2023-06-22T02:35:10;102142.66;;;24.26;nan
69245;BME280;56357;52.304;4.870;2023-06-22T02:37:37;102139.59;;;24.23;nan
69245;BME280;56357;52.304;4.870;2023-06-22T02:40:06;102142.66;;;24.26;nan
69245;BME280;56357;52.304;4.870;2023-06-22T02:42:34;102150.34;;;24.26;nan
69245;BME280;56357;52.304;4.870;2023-06-22T02:45:00;102144.13;;;24.24;nan
69245;BME280;56357;52.304;4.870;2023-06-22T02:47:26;102150.34;;;24.21;nan
69245;BME280;56357;52.304;4.870;2023-06-22T02:49:53;102140.19;;;24.20;nan
69245;BME280;56357;52.304;4.870;2023-06-22T02:52:19;102146.44;;;24.12;nan
69245;BME280;56357;52.304;4.870;2023-06-22T02:54:45;102150.38;;;24.16;nan
69245;BME280;56357;52.304;4.870;2023-06-22T02:57:12;102141.34;;;24.14;nan
69245;BME280;56357;52.304;4.870;2023-06-22T02:59:39;102140.75;;;24.17;nan
69245;BME280;56357;52.304;4.870;2023-06-22T03:02:07;102151.25;;;24.16;nan
69245;BME280;56357;52.304;4.870;2023-06-22T03:04:34;102150.13;;;24.12;nan
69245;BME280;56357;52.304;4.870;2023-06-22T03:07:00;102147.03;;;24.09;nan
69245;BME280;56357;52.304;4.870;2023-06-22T03:09:30;102135.13;;;24.12;nan
69245;BME280;56357;52.304;4.870;2023-06-22T03:11:56;102143.34;;;24.08;nan
69245;BME280;56357;52.304;4.870;2023-06-22T03:14:22;102145.31;;;24.08;nan
69245;BME280;56357;52.304;4.870;2023-06-22T03:16:49;102136.28;;;24.06;nan
69245;BME280;56357;52.304;4.870;2023-06-22T03:19:15;102139.38;;;24.09;nan
69245;BME280;56357;52.304;4.870;2023-06-22T03:21:41;102140.81;;;24.07;nan
69245;BME280;56357;52.304;4.870;2023-06-22T03:24:08;102139.69;;;24.03;nan
69245;BME280;56357;52.304;4.870;2023-06-22T03:26:34;102144.22;;;23.99;nan
69245;BME280;56357;52.304;4.870;2023-06-22T03:29:01;102143.91;;;24.00;nan
69245;BME280;56357;52.304;4.870;2023-06-22T03:31:27;102151.84;;;23.98;nan
69245;BME280;56357;52.304;4.870;2023-06-22T03:33:53;102144.75;;;23.96;nan
69245;BME280;56357;52.304;4.870;2023-06-22T03:36:20;102142.22;;;23.94;nan
69245;BME280;56357;52.304;4.870;2023-06-22T03:38:47;102141.13;;;23.95;nan
69245;BME280;56357;52.304;4.870;2023-06-22T03:41:14;102126.41;;;23.93;nan
69245;BME280;56357;52.304;4.870;2023-06-22T03:43:40;102125.56;;;23.93;nan
69245;BME280;56357;52.304;4.870;2023-06-22T03:46:07;102122.72;;;23.93;nan
69245;BME280;56357;52.304;4.870;2023-06-22T03:48:33;102120.19;;;23.91;nan
69245;BME280;56357;52.304;4.870;2023-06-22T03:51:00;102121.59;;;23.89;nan
69245;BME280;56357;52.304;4.870;2023-06-22T03:53:28;102130.09;;;23.89;nan
69245;BME280;56357;52.304;4.870;2023-06-22T03:55:54;102134.34;;;23.86;nan
69245;BME280;56357;52.304;4.870;2023-06-22T03:58:21;102131.25;;;23.83;nan
69245;BME280;56357;52.304;4.870;2023-06-22T04:00:48;102135.19;;;23.87;nan
69245;BME280;56357;52.304;4.870;2023-06-22T04:03:15;102130.38;;;23.87;nan
69245;BME280;56357;52.304;4.870;2023-06-22T04:05:43;102133.78;;;23.84;nan
69245;BME280;56357;52.304;4.870;2023-06-22T04:08:10;102130.69;;;23.86;nan
69245;BME280;56357;52.304;4.870;2023-06-22T04:10:36;102122.75;;;23.83;nan
69245;BME280;56357;52.304;4.870;2023-06-22T04:13:03;102121.06;;;23.82;nan
69245;BME280;56357;52.304;4.870;2023-06-22T04:15:29;102117.69;;;23.80;nan
69245;BME280;56357;52.304;4.870;2023-06-22T04:17:55;102128.41;;;23.83;nan
69245;BME280;56357;52.304;4.870;2023-06-22T04:20:22;102119.38;;;23.81;nan
69245;BME280;56357;52.304;4.870;2023-06-22T04:22:50;102114.28;;;23.83;nan
69245;BME280;56357;52.304;4.870;2023-06-22T04:25:17;102110.88;;;23.81;nan
69245;BME280;56357;52.304;4.870;2023-06-22T04:27:43;102111.72;;;23.81;nan
69245;BME280;56357;52.304;4.870;2023-06-22T04:30:10;102121.06;;;23.82;nan
69245;BME280;56357;52.304;4.870;2023-06-22T04:32:37;102118.25;;;23.82;nan
69245;BME280;56357;52.304;4.870;2023-06-22T04:35:04;102120.22;;;23.81;nan
69245;BME280;56357;52.304;4.870;2023-06-22T04:37:31;102122.19;;;23.81;nan
69245;BME280;56357;52.304;4.870;2023-06-22T04:39:57;102111.16;;;23.84;nan
69245;BME280;56357;52.304;4.870;2023-06-22T04:42:27;102122.19;;;23.86;nan
69245;BME280;56357;52.304;4.870;2023-06-22T04:44:53;102130.69;;;23.81;nan
69245;BME280;56357;52.304;4.870;2023-06-22T04:47:20;102122.97;;;23.96;nan
69245;BME280;56357;52.304;4.870;2023-06-22T04:49:46;102111.97;;;24.05;nan
69245;BME280;56357;52.304;4.870;2023-06-22T04:52:13;102125.50;;;24.08;nan
69245;BME280;56357;52.304;4.870;2023-06-22T04:54:45;102119.53;;;24.14;nan
69245;BME280;56357;52.304;4.870;2023-06-22T04:57:20;102120.66;;;24.18;nan
69245;BME280;56357;52.304;4.870;2023-06-22T04:59:55;102126.59;;;24.22;nan
69245;BME280;56357;52.304;4.870;2023-06-22T05:02:22;102116.38;;;24.26;nan
69245;BME280;56357;52.304;4.870;2023-06-22T05:04:56;102116.38;;;24.26;nan
69245;BME280;56357;52.304;4.870;2023-06-22T05:07:23;102115.22;;;24.27;nan
69245;BME280;56357;52.304;4.870;2023-06-22T05:09:50;102122.28;;;24.24;nan
69245;BME280;56357;52.304;4.870;2023-06-22T05:12:16;102121.78;;;24.22;nan
69245;BME280;56357;52.304;4.870;2023-06-22T05:14:43;102126.03;;;24.20;nan
69245;BME280;56357;52.304;4.870;2023-06-22T05:17:09;102119.75;;;24.23;nan
69245;BME280;56357;52.304;4.870;2023-06-22T05:19:38;102127.78;;;24.06;nan
69245;BME280;56357;52.304;4.870;2023-06-22T05:22:04;102128.41;;;23.88;nan
69245;BME280;56357;52.304;4.870;2023-06-22T05:24:31;102123.56;;;23.88;nan
69245;BME280;56357;52.304;4.870;2023-06-22T05:26:57;102117.59;;;24.00;nan
69245;BME280;56357;52.304;4.870;2023-06-22T05:29:24;102114.28;;;23.88;nan
69245;BME280;56357;52.304;4.870;2023-06-22T05:31:51;102119.59;;;23.94;nan
69245;BME280;56357;52.304;4.870;2023-06-22T05:34:18;102115.34;;;24.07;nan
69245;BME280;56357;52.304;4.870;2023-06-22T05:36:44;102108.47;;;24.18;nan
69245;BME280;56357;52.304;4.870;2023-06-22T05:39:11;102114.97;;;24.23;nan
69245;BME280;56357;52.304;4.870;2023-06-22T05:41:38;102112.44;;;24.22;nan
69245;BME280;56357;52.304;4.870;2023-06-22T05:44:04;102109.84;;;24.25;nan
69245;BME280;56357;52.304;4.870;2023-06-22T05:46:31;102111.28;;;24.23;nan
69245;BME280;56357;52.304;4.870;2023-06-22T05:48:57;102120.97;;;24.12;nan
69245;BME280;56357;52.304;4.870;2023-06-22T05:51:24;102123.78;;;24.12;nan
69245;BME280;56357;52.304;4.870;2023-06-22T05:53:50;102120.91;;;24.22;nan
69245;BME280;56357;52.304;4.870;2023-06-22T05:56:16;102120.03;;;24.26;nan
69245;BME280;56357;52.304;4.870;2023-06-22T05:58:43;102122.03;;;24.26;nan
69245;BME280;56357;52.304;4.870;2023-06-22T06:01:09;102124.56;;;24.27;nan
69245;BME280;56357;52.304;4.870;2023-06-22T06:03:36;102124.88;;;24.26;nan
69245;BME280;56357;52.304;4.870;2023-06-22T06:06:06;102122.84;;;24.26;nan
69245;BME280;56357;52.304;4.870;2023-06-22T06:08:33;102126.59;;;24.22;nan
69245;BME280;56357;52.304;4.870;2023-06-22T06:10:59;102129.38;;;24.27;nan
69245;BME280;56357;52.304;4.870;2023-06-22T06:13:25;102129.72;;;24.15;nan
69245;BME280;56357;52.304;4.870;2023-06-22T06:15:52;102122.84;;;24.26;nan
69245;BME280;56357;52.304;4.870;2023-06-22T06:18:20;102120.00;;;24.31;nan
69245;BME280;56357;52.304;4.870;2023-06-22T06:20:46;102109.56;;;24.27;nan
69245;BME280;56357;52.304;4.870;2023-06-22T06:23:12;102113.81;;;24.24;nan
69245;BME280;56357;52.304;4.870;2023-06-22T06:25:39;102112.97;;;24.24;nan
69245;BME280;56357;52.304;4.870;2023-06-22T06:28:05;102106.47;;;24.23;nan
69245;BME280;56357;52.304;4.870;2023-06-22T06:30:32;102111.53;;;24.26;nan
69245;BME280;56357;52.304;4.870;2023-06-22T06:32:58;102104.75;;;24.27;nan
69245;BME280;56357;52.304;4.870;2023-06-22T06:35:24;102105.31;;;24.29;nan
69245;BME280;56357;52.304;4.870;2023-06-22T06:37:51;102106.16;;;24.30;nan
69245;BME280;56357;52.304;4.870;2023-06-22T06:40:17;102107.84;;;24.31;nan
69245;BME280;56357;52.304;4.870;2023-06-22T06:42:46;102108.69;;;24.31;nan
69245;BME280;56357;52.304;4.870;2023-06-22T06:45:16;102105.00;;;24.31;nan
69245;BME280;56357;52.304;4.870;2023-06-22T06:47:43;102114.59;;;24.35;nan
69245;BME280;56357;52.304;4.870;2023-06-22T06:50:10;102108.63;;;24.36;nan
69245;BME280;56357;52.304;4.870;2023-06-22T06:52:36;102113.13;;;24.42;nan
69245;BME280;56357;52.304;4.870;2023-06-22T06:55:03;102109.19;;;24.43;nan
69245;BME280;56357;52.304;4.870;2023-06-22T06:57:33;102097.81;;;24.48;nan
69245;BME280;56357;52.304;4.870;2023-06-22T06:59:59;102100.09;;;24.46;nan
69245;BME280;56357;52.304;4.870;2023-06-22T07:02:26;102100.09;;;24.46;nan
69245;BME280;56357;52.304;4.870;2023-06-22T07:04:54;102096.94;;;24.48;nan
69245;BME280;56357;52.304;4.870;2023-06-22T07:07:21;102097.50;;;24.50;nan
69245;BME280;56357;52.304;4.870;2023-06-22T07:09:47;102096.34;;;24.56;nan
69245;BME280;56357;52.304;4.870;2023-06-22T07:12:14;102097.75;;;24.59;nan
69245;BME280;56357;52.304;4.870;2023-06-22T07:14:40;102094.59;;;24.60;nan
69245;BME280;56357;52.304;4.870;2023-06-22T07:17:06;102085.81;;;24.62;nan
69245;BME280;56357;52.304;4.870;2023-06-22T07:19:33;102089.50;;;24.62;nan
69245;BME280;56357;52.304;4.870;2023-06-22T07:21:59;102094.56;;;24.65;nan
69245;BME280;56357;52.304;4.870;2023-06-22T07:24:26;102089.13;;;24.69;nan
69245;BME280;56357;52.304;4.870;2023-06-22T07:26:52;102090.84;;;24.70;nan
69245;BME280;56357;52.304;4.870;2023-06-22T07:29:19;102089.69;;;24.71;nan
69245;BME280;56357;52.304;4.870;2023-06-22T07:31:46;102084.88;;;24.71;nan
69245;BME280;56357;52.304;4.870;2023-06-22T07:34:14;102083.47;;;24.74;nan
69245;BME280;56357;52.304;4.870;2023-06-22T07:36:41;102098.75;;;24.78;nan
69245;BME280;56357;52.304;4.870;2023-06-22T07:39:07;102086.56;;;24.77;nan
69245;BME280;56357;52.304;4.870;2023-06-22T07:41:33;102080.03;;;24.82;nan
69245;BME280;56357;52.304;4.870;2023-06-22T07:44:00;102079.72;;;24.83;nan
69245;BME280;56357;52.304;4.870;2023-06-22T07:46:26;102075.19;;;24.82;nan
69245;BME280;56357;52.304;4.870;2023-06-22T07:48:55;102077.44;;;24.85;nan
69245;BME280;56357;52.304;4.870;2023-06-22T07:51:21;102073.16;;;24.88;nan
69245;BME280;56357;52.304;4.870;2023-06-22T07:53:47;102064.94;;;24.86;nan
69245;BME280;56357;52.304;4.870;2023-06-22T07:56:14;102058.38;;;24.91;nan
69245;BME280;56357;52.304;4.870;2023-06-22T07:58:44;102065.72;;;24.92;nan
69245;BME280;56357;52.304;4.870;2023-06-22T08:01:10;102064.94;;;24.86;nan
69245;BME280;56357;52.304;4.870;2023-06-22T08:03:37;102066.97;;;24.81;nan
69245;BME280;56357;52.304;4.870;2023-06-22T08:06:04;102062.66;;;24.88;nan
69245;BME280;56357;52.304;4.870;2023-06-22T08:08:30;102057.84;;;24.89;nan
69245;BME280;56357;52.304;4.870;2023-06-22T08:10:57;102059.78;;;24.93;nan
69245;BME280;56357;52.304;4.870;2023-06-22T08:13:23;102055.81;;;24.94;nan
69245;BME280;56357;52.304;4.870;2023-06-22T08:15:50;102051.53;;;24.97;nan
69245;BME280;56357;52.304;4.870;2023-06-22T08:18:16;102045.56;;;24.98;nan
69245;BME280;56357;52.304;4.870;2023-06-22T08:20:42;102046.97;;;25.01;nan
69245;BME280;56357;52.304;4.870;2023-06-22T08:23:09;102054.53;;;25.05;nan
69245;BME280;56357;52.304;4.870;2023-06-22T08:25:35;102057.34;;;25.10;nan
69245;BME280;56357;52.304;4.870;2023-06-22T08:28:02;102047.38;;;25.13;nan
69245;BME280;56357;52.304;4.870;2023-06-22T08:30:29;102044.81;;;25.16;nan
69245;BME280;56357;52.304;4.870;2023-06-22T08:32:55;102044.84;;;25.11;nan
69245;BME280;56357;52.304;4.870;2023-06-22T08:35:22;102044.28;;;25.14;nan
69245;BME280;56357;52.304;4.870;2023-06-22T08:37:49;102033.75;;;25.15;nan
69245;BME280;56357;52.304;4.870;2023-06-22T08:40:17;102031.97;;;25.24;nan
69245;BME280;56357;52.304;4.870;2023-06-22T08:42:44;102030.03;;;25.19;nan
69245;BME280;56357;52.304;4.870;2023-06-22T08:45:11;102041.38;;;25.19;nan
69245;BME280;56357;52.304;4.870;2023-06-22T08:47:38;102039.16;;;25.16;nan
69245;BME280;56357;52.304;4.870;2023-06-22T08:50:06;102044.75;;;25.21;nan
69245;BME280;56357;52.304;4.870;2023-06-22T08:52:33;102035.09;;;25.22;nan
69245;BME280;56357;52.304;4.870;2023-06-22T08:55:00;102037.91;;;25.22;nan
69245;BME280;56357;52.304;4.870;2023-06-22T08:57:29;102031.13;;;25.23;nan
69245;BME280;56357;52.304;4.870;2023-06-22T08:59:57;102028.28;;;25.23;nan
69245;BME280;56357;52.304;4.870;2023-06-22T09:02:24;102017.47;;;25.25;nan
69245;BME280;56357;52.304;4.870;2023-06-22T09:04:51;102018.34;;;25.26;nan
69245;BME280;56357;52.304;4.870;2023-06-22T09:07:21;102014.34;;;25.27;nan
69245;BME280;56357;52.304;4.870;2023-06-22T09:09:49;102019.72;;;25.28;nan
69245;BME280;56357;52.304;4.870;2023-06-22T09:12:16;102016.59;;;25.30;nan
69245;BME280;56357;52.304;4.870;2023-06-22T09:14:44;102025.09;;;25.30;nan
69245;BME280;56357;52.304;4.870;2023-06-22T09:17:12;102024.78;;;25.31;nan
69245;BME280;56357;52.304;4.870;2023-06-22T09:19:38;102028.44;;;25.32;nan
69245;BME280;56357;52.304;4.870;2023-06-22T09:22:05;102023.03;;;25.35;nan
69245;BME280;56357;52.304;4.870;2023-06-22T09:24:31;102012.84;;;25.34;nan
69245;BME280;56357;52.304;4.870;2023-06-22T09:26:58;102003.75;;;25.37;nan
69245;BME280;56357;52.304;4.870;2023-06-22T09:29:24;102006.28;;;25.39;nan
69245;BME280;56357;52.304;4.870;2023-06-22T09:31:50;102004.31;;;25.34;nan
69245;BME280;56357;52.304;4.870;2023-06-22T09:34:18;102014.81;;;25.39;nan
69245;BME280;56357;52.304;4.870;2023-06-22T09:36:45;102020.75;;;25.37;nan
69245;BME280;56357;52.304;4.870;2023-06-22T09:39:12;102025.25;;;25.38;nan
69245;BME280;56357;52.304;4.870;2023-06-22T09:41:38;102025.84;;;25.41;nan
69245;BME280;56357;52.304;4.870;2023-06-22T09:44:05;102016.72;;;25.44;nan
69245;BME280;56357;52.304;4.870;2023-06-22T09:46:31;102021.25;;;25.45;nan
69245;BME280;56357;52.304;4.870;2023-06-22T09:48:57;102010.22;;;25.43;nan
69245;BME280;56357;52.304;4.870;2023-06-22T09:51:24;102020.09;;;25.46;nan
69245;BME280;56357;52.304;4.870;2023-06-22T09:53:50;102014.41;;;25.46;nan
69245;BME280;56357;52.304;4.870;2023-06-22T09:56:17;102008.69;;;25.51;nan
69245;BME280;56357;52.304;4.870;2023-06-22T09:58:44;102004.16;;;25.50;nan
69245;BME280;56357;52.304;4.870;2023-06-22T10:01:11;102009.56;;;25.51;nan
69245;BME280;56357;52.304;4.870;2023-06-22T10:03:38;101999.88;;;25.52;nan
69245;BME280;56357;52.304;4.870;2023-06-22T10:06:04;102000.97;;;25.56;nan
69245;BME280;56357;52.304;4.870;2023-06-22T10:08:30;101993.84;;;25.59;nan
69245;BME280;56357;52.304;4.870;2023-06-22T10:10:56;101989.84;;;25.60;nan
69245;BME280;56357;52.304;4.870;2023-06-22T10:13:23;101983.63;;;25.58;nan
69245;BME280;56357;52.304;4.870;2023-06-22T10:15:49;101984.19;;;25.60;nan
69245;BME280;56357;52.304;4.870;2023-06-22T10:18:20;101983.59;;;25.63;nan
69245;BME280;56357;52.304;4.870;2023-06-22T10:20:49;101980.66;;;25.68;nan
69245;BME280;56357;52.304;4.870;2023-06-22T10:23:16;101988.00;;;25.69;nan
69245;BME280;56357;52.304;4.870;2023-06-22T10:25:43;101987.19;;;25.68;nan
69245;BME280;56357;52.304;4.870;2023-06-22T10:28:09;101986.88;;;25.70;nan
69245;BME280;56357;52.304;4.870;2023-06-22T10:30:36;101992.56;;;25.70;nan
69245;BME280;56357;52.304;4.870;2023-06-22T10:33:02;101989.09;;;25.73;nan
69245;BME280;56357;52.304;4.870;2023-06-22T10:35:29;101992.56;;;25.70;nan
69245;BME280;56357;52.304;4.870;2023-06-22T10:37:55;101983.50;;;25.68;nan
69245;BME280;56357;52.304;4.870;2023-06-22T10:40:22;101983.19;;;25.69;nan
69245;BME280;56357;52.304;4.870;2023-06-22T10:42:48;101990.84;;;25.69;nan
69245;BME280;56357;52.304;4.870;2023-06-22T10:45:15;101993.94;;;25.72;nan
69245;BME280;56357;52.304;4.870;2023-06-22T10:47:42;101993.41;;;25.70;nan
69245;BME280;56357;52.304;4.870;2023-06-22T10:50:08;101992.25;;;25.71;nan
69245;BME280;56357;52.304;4.870;2023-06-22T10:52:34;101991.41;;;25.71;nan
69245;BME280;56357;52.304;4.870;2023-06-22T10:55:01;101989.72;;;25.70;nan
69245;BME280;56357;52.304;4.870;2023-06-22T10:57:27;102002.75;;;25.71;nan
69245;BME280;56357;52.304;4.870;2023-06-22T10:59:54;101993.63;;;25.74;nan
69245;BME280;56357;52.304;4.870;2023-06-22T11:02:20;101992.78;;;25.73;nan
69245;BME280;56357;52.304;4.870;2023-06-22T11:04:46;101998.16;;;25.75;nan
69245;BME280;56357;52.304;4.870;2023-06-22T11:07:14;101988.19;;;25.77;nan
69245;BME280;56357;52.304;4.870;2023-06-22T11:09:42;101990.72;;;25.79;nan
69245;BME280;56357;52.304;4.870;2023-06-22T11:12:09;101988.50;;;25.76;nan
69245;BME280;56357;52.304;4.870;2023-06-22T11:14:35;101994.19;;;25.76;nan
69245;BME280;56357;52.304;4.870;2023-06-22T11:17:01;101989.03;;;25.78;nan
69245;BME280;56357;52.304;4.870;2023-06-22T11:19:28;101997.34;;;25.74;nan
69245;BME280;56357;52.304;4.870;2023-06-22T11:21:54;101990.19;;;25.77;nan
69245;BME280;56357;52.304;4.870;2023-06-22T11:24:21;101994.94;;;25.81;nan
69245;BME280;56357;52.304;4.870;2023-06-22T11:26:48;102002.91;;;25.79;nan
69245;BME280;56357;52.304;4.870;2023-06-22T11:29:14;101996.94;;;25.81;nan
69245;BME280;56357;52.304;4.870;2023-06-22T11:31:40;101996.09;;;25.80;nan
69245;BME280;56357;52.304;4.870;2023-06-22T11:34:08;101993.78;;;25.82;nan
69245;BME280;56357;52.304;4.870;2023-06-22T11:36:34;101992.34;;;25.85;nan
69245;BME280;56357;52.304;4.870;2023-06-22T11:39:01;101990.03;;;25.87;nan
69245;BME280;56357;52.304;4.870;2023-06-22T11:41:28;101992.03;;;25.86;nan
69245;BME280;56357;52.304;4.870;2023-06-22T11:43:54;101986.03;;;25.88;nan
69245;BME280;56357;52.304;4.870;2023-06-22T11:46:21;101985.22;;;25.87;nan
69245;BME280;56357;52.304;4.870;2023-06-22T11:48:47;101978.16;;;25.85;nan
69245;BME280;56357;52.304;4.870;2023-06-22T11:51:13;101980.34;;;25.88;nan
69245;BME280;56357;52.304;4.870;2023-06-22T11:53:40;101971.56;;;25.89;nan
69245;BME280;56357;52.304;4.870;2023-06-22T11:56:06;101963.88;;;25.90;nan
69245;BME280;56357;52.304;4.870;2023-06-22T11:58:32;101963.34;;;25.88;nan
69245;BME280;56357;52.304;4.870;2023-06-22T12:00:59;101959.94;;;25.86;nan
69245;BME280;56357;52.304;4.870;2023-06-22T12:03:25;101955.34;;;25.90;nan
69245;BME280;56357;52.304;4.870;2023-06-22T12:05:52;101957.59;;;25.93;nan
69245;BME280;56357;52.304;4.870;2023-06-22T12:08:18;101945.06;;;25.94;nan
69245;BME280;56357;52.304;4.870;2023-06-22T12:10:45;101945.69;;;25.91;nan
69245;BME280;56357;52.304;4.870;2023-06-22T12:13:11;101941.16;;;25.90;nan
69245;BME280;56357;52.304;4.870;2023-06-22T12:15:38;101936.88;;;25.92;nan
69245;BME280;56357;52.304;4.870;2023-06-22T12:18:04;101938.31;;;25.90;nan
69245;BME280;56357;52.304;4.870;2023-06-22T12:20:31;101936.88;;;25.92;nan
69245;BME280;56357;52.304;4.870;2023-06-22T12:22:57;101937.72;;;25.93;nan
69245;BME280;56357;52.304;4.870;2023-06-22T12:25:24;101926.38;;;25.93;nan
69245;BME280;56357;52.304;4.870;2023-06-22T12:27:50;101926.16;;;25.89;nan
69245;BME280;56357;52.304;4.870;2023-06-22T12:30:17;101925.53;;;25.92;nan
69245;BME280;56357;52.304;4.870;2023-06-22T12:32:43;101928.91;;;25.94;nan
69245;BME280;56357;52.304;4.870;2023-06-22T12:35:09;101925.53;;;25.92;nan
69245;BME280;56357;52.304;4.870;2023-06-22T12:37:40;101927.81;;;25.90;nan
69245;BME280;56357;52.304;4.870;2023-06-22T12:40:06;101921.81;;;25.92;nan
69245;BME280;56357;52.304;4.870;2023-06-22T12:42:32;101914.78;;;25.89;nan
69245;BME280;56357;52.304;4.870;2023-06-22T12:44:59;101929.81;;;25.90;nan
69245;BME280;56357;52.304;4.870;2023-06-22T12:47:25;101921.59;;;25.88;nan
69245;BME280;56357;52.304;4.870;2023-06-22T12:49:52;101923.59;;;25.88;nan
69245;BME280;56357;52.304;4.870;2023-06-22T12:52:18;101918.53;;;25.85;nan
69245;BME280;56357;52.304;4.870;2023-06-22T12:54:44;101910.88;;;25.85;nan
69245;BME280;56357;52.304;4.870;2023-06-22T12:57:11;101911.19;;;25.84;nan
69245;BME280;56357;52.304;4.870;2023-06-22T12:59:37;101916.34;;;25.82;nan
69245;BME280;56357;52.304;4.870;2023-06-22T13:02:03;101910.66;;;25.82;nan
69245;BME280;56357;52.304;4.870;2023-06-22T13:04:30;101910.94;;;25.80;nan
69245;BME280;56357;52.304;4.870;2023-06-22T13:06:56;101909.72;;;25.86;nan
69245;BME280;56357;52.304;4.870;2023-06-22T13:09:23;101900.13;;;25.82;nan
69245;BME280;56357;52.304;4.870;2023-06-22T13:11:49;101905.81;;;25.82;nan
69245;BME280;56357;52.304;4.870;2023-06-22T13:14:17;101898.22;;;25.78;nan
69245;BME280;56357;52.304;4.870;2023-06-22T13:16:43;101904.44;;;25.80;nan
69245;BME280;56357;52.304;4.870;2023-06-22T13:19:09;101895.38;;;25.78;nan